Kaiwo Maru — JMMU — position and weather

sailwx.info

Track history (hours):
 
Tides and Currents Weather Stations Pressure Air Temp Water Temp Dewpoint Dewpoint Depression Visibility Wind Speed Wind Dir Waves Ship Positions

Kaiwo Maru (Japan)

Built in 1989. Trains merchant marine cadets for Japan's National Institute for Sea Training.

Ship's website: http://www.kohkun.go.jp/en/ships/kaiwomaru.html

Last reported at 2018-Apr-12 11:22 UTC. Time now 2018-Apr-25 02:41 UTC.
Position N 34°54' E 140°13'.
Warning: this ship's position is 12 days out of date.

Length 110.1 m; beam 13.8 m; draft 6 m.

Type: Sailing vessel. MMSI: 431006000.

Date/timePositionNaut miles runAvg speedWind from/ knotsBaromVisibWave heightAir tempDewpointWater temp
2018-Apr-12 11:22N 34°54' E 140°13'1812.5
2018-Apr-12 09:55N 34°51' E 139°51'611.7
2018-Apr-12 09:25N 34°54' E 139°45'511.0
2018-Apr-12 09:00N 34°58' E 139°42'4 7.9
2018-Apr-12 08:31N 35°02' E 139°42'4 7.9
2018-Apr-12 08:00N 35°06' E 139°43'4 8.2
2018-Apr-12 07:31N 35°09' E 139°45'4 8.4
2018-Apr-12 07:00N 35°13' E 139°46'5 9.5
2018-Apr-12 06:31N 35°18' E 139°44'5 9.2
2018-Apr-12 06:01N 35°22' E 139°42'4 8.1
2018-Apr-12 05:30N 35°26' E 139°42'3 5.2
2018-Apr-12 05:00N 35°27' E 139°39'0 0.2
2018-Apr-12 04:28N 35°27' E 139°39'0 0.0
2018-Apr-12 03:58N 35°27' E 139°39'0 0.0
2018-Apr-12 03:28N 35°27' E 139°39'0 0.0
2018-Apr-12 02:58N 35°27' E 139°39'0 0.0
2018-Apr-12 02:28N 35°27' E 139°39'0 0.0
2018-Apr-12 01:58N 35°27' E 139°39'0 0.0
2018-Apr-12 01:28N 35°27' E 139°39'0 0.0
2018-Apr-12 00:55N 35°27' E 139°39'0 0.0
2018-Apr-12 00:28N 35°27' E 139°39'0 0.0
2018-Apr-11 23:58N 35°27' E 139°39'0 0.0
2018-Apr-11 23:28N 35°27' E 139°39'0 0.0
2018-Apr-11 22:58N 35°27' E 139°39'0 0.0
2018-Apr-11 22:28N 35°27' E 139°39'0 0.0
2018-Apr-11 21:58N 35°27' E 139°39'0 0.0
2018-Apr-11 21:28N 35°27' E 139°39'0 0.0
2018-Apr-11 20:58N 35°27' E 139°39'0 0.0
2018-Apr-11 20:28N 35°27' E 139°39'0 0.0
2018-Apr-11 19:58N 35°27' E 139°39'0 0.0
2018-Apr-11 19:28N 35°27' E 139°39'0 0.0
2018-Apr-11 18:58N 35°27' E 139°39'0 0.0
2018-Apr-11 18:28N 35°27' E 139°39'0 0.0
2018-Apr-11 17:58N 35°27' E 139°39'0 0.0
2018-Apr-11 17:25N 35°27' E 139°39'0 0.0
2018-Apr-11 16:55N 35°27' E 139°39'0 0.0
2018-Apr-11 16:28N 35°27' E 139°39'0 0.0
2018-Apr-11 15:58N 35°27' E 139°39'0 0.0
2018-Apr-11 15:28N 35°27' E 139°39'0 0.0
2018-Apr-11 14:58N 35°27' E 139°39'0 0.0
2018-Apr-11 14:28N 35°27' E 139°39'0 0.0
2018-Apr-11 13:55N 35°27' E 139°39'0 0.0
2018-Apr-11 13:28N 35°27' E 139°39'0 0.0
2018-Apr-11 12:58N 35°27' E 139°39'0 0.0
2018-Apr-11 12:28N 35°27' E 139°39'0 0.0
2018-Apr-11 11:58N 35°27' E 139°39'0 0.0
2018-Apr-11 11:28N 35°27' E 139°39'0 0.0
2018-Apr-11 10:58N 35°27' E 139°39'0 0.0
2018-Apr-11 10:28N 35°27' E 139°39'0 0.0
2018-Apr-11 09:58N 35°27' E 139°39'0 0.0
2018-Apr-11 09:28N 35°27' E 139°39'0 0.0
2018-Apr-11 08:58N 35°27' E 139°39'0 0.0
2018-Apr-11 08:28N 35°27' E 139°39'0 0.0
2018-Apr-11 07:58N 35°27' E 139°39'0 0.0
2018-Apr-11 07:28N 35°27' E 139°39'0 0.0
2018-Apr-11 06:58N 35°27' E 139°39'0 0.0
2018-Apr-11 06:28N 35°27' E 139°39'0 0.0
2018-Apr-11 05:58N 35°27' E 139°39'0 0.0
2018-Apr-11 05:28N 35°27' E 139°39'0 0.0
2018-Apr-11 04:55N 35°27' E 139°39'0 0.0
2018-Apr-11 04:28N 35°27' E 139°39'0 0.0
2018-Apr-11 03:58N 35°27' E 139°39'0 0.0
2018-Apr-11 03:28N 35°27' E 139°39'0 0.0
2018-Apr-11 02:58N 35°27' E 139°39'0 0.0
2018-Apr-11 02:25N 35°27' E 139°39'0 0.0
2018-Apr-11 01:58N 35°27' E 139°39'0 0.0
2018-Apr-11 01:25N 35°27' E 139°39'0 0.0
2018-Apr-11 00:58N 35°27' E 139°39'0 0.0
2018-Apr-11 00:28N 35°27' E 139°39'0 0.0
2018-Apr-10 23:58N 35°27' E 139°39'0 0.0
2018-Apr-10 23:28N 35°27' E 139°39'0 0.0
2018-Apr-10 22:58N 35°27' E 139°39'0 0.0
2018-Apr-10 22:25N 35°27' E 139°39'0 0.0
2018-Apr-10 21:58N 35°27' E 139°39'0 0.0
2018-Apr-10 21:28N 35°27' E 139°39'0 0.0
2018-Apr-10 20:58N 35°27' E 139°39'0 0.0
2018-Apr-10 20:28N 35°27' E 139°39'0 0.0
2018-Apr-10 19:58N 35°27' E 139°39'0 0.0
2018-Apr-10 19:28N 35°27' E 139°39'0 0.0
2018-Apr-10 18:59N 35°27' E 139°39'0 0.0
2018-Apr-10 18:28N 35°27' E 139°39'0 0.0
2018-Apr-10 17:58N 35°27' E 139°39'0 0.0
2018-Apr-10 17:28N 35°27' E 139°39'0 0.0
2018-Apr-10 16:58N 35°27' E 139°39'0 0.0
2018-Apr-10 16:28N 35°27' E 139°39'0 0.0
2018-Apr-10 15:52N 35°27' E 139°39'0 0.0
2018-Apr-10 15:25N 35°27' E 139°39'0 0.0
2018-Apr-10 14:55N 35°27' E 139°39'0 0.0
2018-Apr-10 14:28N 35°27' E 139°39'0 0.0
2018-Apr-10 13:58N 35°27' E 139°39'0 0.0
2018-Apr-10 13:28N 35°27' E 139°39'0 0.0
2018-Apr-10 12:58N 35°27' E 139°39'0 0.0
2018-Apr-10 12:28N 35°27' E 139°39'0 0.0
2018-Apr-10 11:58N 35°27' E 139°39'0 0.0
2018-Apr-10 11:28N 35°27' E 139°39'0 0.0
2018-Apr-10 10:58N 35°27' E 139°39'0 0.0
2018-Apr-10 10:25N 35°27' E 139°39'0 0.0
2018-Apr-10 09:58N 35°27' E 139°39'0 0.0
2018-Apr-10 09:28N 35°27' E 139°39'0 0.0
2018-Apr-10 08:52N 35°27' E 139°39'0 0.0
2018-Apr-10 08:28N 35°27' E 139°39'0 0.0
2018-Apr-10 07:58N 35°27' E 139°39'0 0.0
2018-Apr-10 07:28N 35°27' E 139°39'0 0.0
2018-Apr-10 06:52N 35°27' E 139°39'0 0.0
2018-Apr-10 06:28N 35°27' E 139°39'0 0.0
2018-Apr-10 05:58N 35°27' E 139°39'0 0.0
2018-Apr-10 05:28N 35°27' E 139°39'0 0.0
2018-Apr-10 04:58N 35°27' E 139°39'0 0.0
2018-Apr-10 04:28N 35°27' E 139°39'0 0.0
2018-Apr-10 03:58N 35°27' E 139°39'0 0.0
2018-Apr-10 03:28N 35°27' E 139°39'0 0.0
2018-Apr-10 02:58N 35°27' E 139°39'0 0.0
2018-Apr-10 02:28N 35°27' E 139°39'0 0.0
2018-Apr-10 01:58N 35°27' E 139°39'0 0.0
2018-Apr-10 01:28N 35°27' E 139°39'0 0.0
2018-Apr-10 00:58N 35°27' E 139°39'0 0.0
2018-Apr-10 00:28N 35°27' E 139°39'0 0.0
2018-Apr-09 23:58N 35°27' E 139°39'0 0.0
2018-Apr-09 23:28N 35°27' E 139°39'0 0.0
2018-Apr-09 22:58N 35°27' E 139°39'0 0.0
2018-Apr-09 22:28N 35°27' E 139°39'0 0.0
2018-Apr-09 21:58N 35°27' E 139°39'0 0.0
2018-Apr-09 21:28N 35°27' E 139°39'0 0.0
2018-Apr-09 20:58N 35°27' E 139°39'0 0.0
2018-Apr-09 20:28N 35°27' E 139°39'0 0.0
2018-Apr-09 19:58N 35°27' E 139°39'0 0.0
2018-Apr-09 19:28N 35°27' E 139°39'0 0.0
2018-Apr-09 18:58N 35°27' E 139°39'0 0.0
2018-Apr-09 18:25N 35°27' E 139°39'0 0.0
2018-Apr-09 17:55N 35°27' E 139°39'0 0.0
2018-Apr-09 17:28N 35°27' E 139°39'0 0.0
2018-Apr-09 16:58N 35°27' E 139°39'0 0.0
2018-Apr-09 16:28N 35°27' E 139°39'0 0.0
2018-Apr-09 15:55N 35°27' E 139°39'0 0.0
2018-Apr-09 15:28N 35°27' E 139°39'0 0.0
2018-Apr-09 14:58N 35°27' E 139°39'0 0.0
2018-Apr-09 14:28N 35°27' E 139°39'0 0.0
2018-Apr-09 13:58N 35°27' E 139°39'0 0.0
2018-Apr-09 13:28N 35°27' E 139°39'0 0.0
2018-Apr-09 12:58N 35°27' E 139°39'0 0.0
2018-Apr-09 12:28N 35°27' E 139°39'0 0.0
2018-Apr-09 11:58N 35°27' E 139°39'0 0.0
2018-Apr-09 11:28N 35°27' E 139°39'0 0.0
2018-Apr-09 10:58N 35°27' E 139°39'0 0.0
2018-Apr-09 10:28N 35°27' E 139°39'0 0.0
2018-Apr-09 09:58N 35°27' E 139°39'0 0.0
2018-Apr-09 09:28N 35°27' E 139°39'0 0.0
2018-Apr-09 08:58N 35°27' E 139°39'0 0.0
2018-Apr-09 08:29N 35°27' E 139°39'0 0.0
2018-Apr-09 07:58N 35°27' E 139°39'0 0.0
2018-Apr-09 07:28N 35°27' E 139°39'0 0.1
2018-Apr-09 06:58N 35°27' E 139°39'0 0.1
2018-Apr-09 06:28N 35°27' E 139°39'0 0.0
2018-Apr-09 05:58N 35°27' E 139°39'0 0.0
2018-Apr-09 05:28N 35°27' E 139°39'0 0.0
2018-Apr-09 04:58N 35°27' E 139°39'0 0.7
2018-Apr-09 04:30N 35°27' E 139°39'4 7.2
2018-Apr-09 04:00N 35°26' E 139°43'4 7.9
2018-Apr-09 03:30N 35°22' E 139°44'0 0.1
2018-Apr-09 03:00N 35°22' E 139°44'0 0.1
2018-Apr-09 02:30N 35°22' E 139°44'0 0.0
2018-Apr-09 02:00N 35°22' E 139°44'0 0.1
2018-Apr-09 01:30N 35°22' E 139°44'0 0.0
2018-Apr-09 00:54N 35°22' E 139°44'0 0.0
2018-Apr-09 00:27N 35°22' E 139°44'0 0.0
2018-Apr-09 00:00N 35°22' E 139°44'0 0.0
2018-Apr-08 23:30N 35°22' E 139°44'0 0.0
2018-Apr-08 22:57N 35°22' E 139°44'0 0.0
2018-Apr-08 22:30N 35°22' E 139°44'0 0.1
2018-Apr-08 21:57N 35°22' E 139°44'0 0.0
2018-Apr-08 21:30N 35°22' E 139°44'0 0.0
2018-Apr-08 21:00N 35°22' E 139°44'0 0.1
2018-Apr-08 20:30N 35°22' E 139°44'0 0.1
2018-Apr-08 20:00N 35°22' E 139°44'0 0.0
2018-Apr-08 19:30N 35°22' E 139°44'0 0.0
2018-Apr-08 19:00N 35°22' E 139°44'0 0.0
2018-Apr-08 18:30N 35°22' E 139°44'0 0.0
2018-Apr-08 18:00N 35°22' E 139°44'0 0.0
2018-Apr-08 17:30N 35°22' E 139°44'0 0.0
2018-Apr-08 17:00N 35°22' E 139°44'0 0.0
2018-Apr-08 16:30N 35°22' E 139°44'0 0.0
2018-Apr-08 16:00N 35°22' E 139°44'0 0.0
2018-Apr-08 15:24N 35°22' E 139°44'0 0.0
2018-Apr-08 15:00N 35°22' E 139°44'0 0.0
2018-Apr-08 14:30N 35°22' E 139°44'0 0.0
2018-Apr-08 14:00N 35°22' E 139°44'0 0.0
2018-Apr-08 13:30N 35°22' E 139°44'0 0.0
2018-Apr-08 13:00N 35°22' E 139°44'0 0.1
2018-Apr-08 12:30N 35°22' E 139°44'0 0.1
2018-Apr-08 12:00N 35°22' E 139°44'0 0.0
2018-Apr-08 11:30N 35°22' E 139°44'0 0.0
2018-Apr-08 11:00N 35°22' E 139°44'0 0.0
2018-Apr-08 10:30N 35°22' E 139°44'0 0.0
2018-Apr-08 10:00N 35°22' E 139°44'0 0.0
2018-Apr-08 09:30N 35°22' E 139°44'0 0.0
2018-Apr-08 09:00N 35°22' E 139°44'0 0.0
2018-Apr-08 08:30N 35°22' E 139°44'0 0.0
2018-Apr-08 08:00N 35°22' E 139°44'0 0.0
2018-Apr-08 07:30N 35°22' E 139°44'0 0.0
2018-Apr-08 07:00N 35°22' E 139°44'0 0.0
2018-Apr-08 06:30N 35°22' E 139°44'0 0.0
2018-Apr-08 06:00N 35°22' E 139°44'0 0.0
2018-Apr-08 05:24N 35°22' E 139°44'0 0.0
2018-Apr-08 05:00N 35°22' E 139°44'0 0.0
2018-Apr-08 04:30N 35°22' E 139°44'0 0.0
2018-Apr-08 04:00N 35°22' E 139°44'0 0.0
2018-Apr-08 03:30N 35°22' E 139°44'0 0.0
2018-Apr-08 02:57N 35°22' E 139°44'0 0.0
2018-Apr-08 02:30N 35°22' E 139°44'0 0.0
2018-Apr-08 02:00N 35°22' E 139°44'0 0.0
2018-Apr-08 01:30N 35°22' E 139°44'0 0.0
2018-Apr-08 01:00N 35°22' E 139°44'0 0.0
2018-Apr-08 00:30N 35°22' E 139°44'0 0.0
2018-Apr-07 23:57N 35°22' E 139°44'0 0.1
2018-Apr-07 23:30N 35°22' E 139°44'0 0.0
2018-Apr-07 23:00N 35°22' E 139°44'0 0.0
2018-Apr-07 22:30N 35°22' E 139°44'0 0.0
2018-Apr-07 22:00N 35°22' E 139°44'0 0.0
2018-Apr-07 21:30N 35°22' E 139°44'0 0.0
2018-Apr-07 21:00N 35°22' E 139°44'0 0.0
2018-Apr-07 20:27N 35°22' E 139°44'0 0.0
2018-Apr-07 20:00N 35°22' E 139°44'0 0.0
2018-Apr-07 19:30N 35°22' E 139°44'0 0.1
2018-Apr-07 19:00N 35°22' E 139°44'0 0.1
2018-Apr-07 18:30N 35°22' E 139°44'0 0.1
2018-Apr-07 18:00N 35°22' E 139°44'0 0.0
2018-Apr-07 17:30N 35°22' E 139°44'0 0.0
2018-Apr-07 17:00N 35°22' E 139°44'0 0.1
2018-Apr-07 16:30N 35°22' E 139°44'0 0.0
2018-Apr-07 16:00N 35°22' E 139°44'0 0.0
2018-Apr-07 15:30N 35°22' E 139°44'0 0.0
2018-Apr-07 15:00N 35°22' E 139°44'0 0.0
2018-Apr-07 14:27N 35°22' E 139°44'0 0.1
2018-Apr-07 14:00N 35°22' E 139°44'0 0.1
2018-Apr-07 13:30N 35°22' E 139°44'0 0.0
2018-Apr-07 13:00N 35°22' E 139°44'0 0.0
2018-Apr-07 12:30N 35°22' E 139°44'0 0.0
2018-Apr-07 12:00N 35°22' E 139°44'0 0.0
2018-Apr-07 11:30N 35°22' E 139°44'0 0.0
2018-Apr-07 11:00N 35°22' E 139°44'0 0.7
2018-Apr-07 10:30N 35°22' E 139°44'1 1.3
2018-Apr-07 10:00N 35°23' E 139°44'4 7.5
2018-Apr-07 09:30N 35°26' E 139°42'3 6.1
2018-Apr-07 09:00N 35°27' E 139°39'0 0.1
2018-Apr-07 08:30N 35°27' E 139°39'0 0.0
2018-Apr-07 08:00N 35°27' E 139°39'0 0.0
2018-Apr-07 07:27N 35°27' E 139°39'0 0.0
2018-Apr-07 07:00N 35°27' E 139°39'0 0.1
2018-Apr-07 06:30N 35°27' E 139°39'0 0.1
2018-Apr-07 06:00N 35°27' E 139°39'0 0.0
2018-Apr-07 05:30N 35°27' E 139°39'0 0.1
2018-Apr-07 05:00N 35°27' E 139°39'0 0.1
2018-Apr-07 04:30N 35°27' E 139°39'0 0.0
2018-Apr-07 04:00N 35°27' E 139°39'0 0.0
2018-Apr-07 03:27N 35°27' E 139°39'0 0.0
2018-Apr-07 03:00N 35°27' E 139°39'0 0.0
2018-Apr-07 02:30N 35°27' E 139°39'0 0.0
2018-Apr-07 02:00N 35°27' E 139°39'0 0.0
2018-Apr-07 01:30N 35°27' E 139°39'0 0.0
2018-Apr-07 01:00N 35°27' E 139°39'0 0.0
2018-Apr-07 00:30N 35°27' E 139°39'0 0.0
2018-Apr-07 00:00N 35°27' E 139°39'0 0.0
2018-Apr-06 23:30N 35°27' E 139°39'0 0.0
2018-Apr-06 23:00N 35°27' E 139°39'0 0.0
2018-Apr-06 22:31N 35°27' E 139°39'0 0.1
2018-Apr-06 22:00N 35°27' E 139°39'0 0.1
2018-Apr-06 21:30N 35°27' E 139°39'0 0.0
2018-Apr-06 21:00N 35°27' E 139°39'0 0.0
2018-Apr-06 20:30N 35°27' E 139°39'0 0.0
2018-Apr-06 20:00N 35°27' E 139°39'0 0.0
2018-Apr-06 19:30N 35°27' E 139°39'0 0.0
2018-Apr-06 19:00N 35°27' E 139°39'0 0.0
2018-Apr-06 18:30N 35°27' E 139°39'0 0.0
2018-Apr-06 18:00N 35°27' E 139°39'0 0.1
2018-Apr-06 17:30N 35°27' E 139°39'0 0.1
2018-Apr-06 17:00N 35°27' E 139°39'0 0.0
2018-Apr-06 16:30N 35°27' E 139°39'0 0.0
2018-Apr-06 16:00N 35°27' E 139°39'0 0.0
2018-Apr-06 15:30N 35°27' E 139°39'0 0.0
2018-Apr-06 15:00N 35°27' E 139°39'0 0.0
2018-Apr-06 14:30N 35°27' E 139°39'0 0.1
2018-Apr-06 14:00N 35°27' E 139°39'0 0.1
2018-Apr-06 13:30N 35°27' E 139°39'0 0.0
2018-Apr-06 13:00N 35°27' E 139°39'0 0.0
2018-Apr-06 12:30N 35°27' E 139°39'0 0.0
2018-Apr-06 12:00N 35°27' E 139°39'0 0.0
2018-Apr-06 11:30N 35°27' E 139°39'0 0.0
2018-Apr-06 11:00N 35°27' E 139°39'0 0.0
2018-Apr-06 10:30N 35°27' E 139°39'0 0.0
2018-Apr-06 10:00N 35°27' E 139°39'0 0.0
2018-Apr-06 09:30N 35°27' E 139°39'0 0.0
2018-Apr-06 09:00N 35°27' E 139°39'0 0.0
2018-Apr-06 08:30N 35°27' E 139°39'0 0.0
2018-Apr-06 08:00N 35°27' E 139°39'0 0.0
2018-Apr-06 07:30N 35°27' E 139°39'0 0.1
2018-Apr-06 07:00N 35°27' E 139°39'0 0.1
2018-Apr-06 06:30N 35°27' E 139°39'0 0.0
2018-Apr-06 06:00N 35°27' E 139°39'0 0.0
2018-Apr-06 05:30N 35°27' E 139°39'0 0.0
2018-Apr-06 05:00N 35°27' E 139°39'0 0.0
2018-Apr-06 04:30N 35°27' E 139°39'0 0.0
2018-Apr-06 04:00N 35°27' E 139°39'0 0.0
2018-Apr-06 03:30N 35°27' E 139°39'0 0.0
2018-Apr-06 03:00N 35°27' E 139°39'0 0.0
2018-Apr-06 02:30N 35°27' E 139°39'0 0.0
2018-Apr-06 02:00N 35°27' E 139°39'0 0.0
2018-Apr-06 01:30N 35°27' E 139°39'0 0.0
2018-Apr-06 01:00N 35°27' E 139°39'0 0.0
2018-Apr-06 00:30N 35°27' E 139°39'0 0.0
2018-Apr-06 00:00N 35°27' E 139°39'0 0.0
2018-Apr-05 23:30N 35°27' E 139°39'0 0.0
2018-Apr-05 23:00N 35°27' E 139°39'0 0.0
2018-Apr-05 22:30N 35°27' E 139°39'0 0.1
2018-Apr-05 22:00N 35°27' E 139°39'0 0.1
2018-Apr-05 21:30N 35°27' E 139°39'0 0.0
2018-Apr-05 21:00N 35°27' E 139°39'0 0.0
2018-Apr-05 20:30N 35°27' E 139°39'0 0.0
2018-Apr-05 19:57N 35°27' E 139°39'0 0.0
2018-Apr-05 19:27N 35°27' E 139°39'0 0.1
2018-Apr-05 19:00N 35°27' E 139°39'0 0.0
2018-Apr-05 18:30N 35°27' E 139°39'0 0.0
2018-Apr-05 18:00N 35°27' E 139°39'0 0.1
2018-Apr-05 17:30N 35°27' E 139°39'0 0.1
2018-Apr-05 17:00N 35°27' E 139°39'0 0.0
2018-Apr-05 16:30N 35°27' E 139°39'0 0.0
2018-Apr-05 16:00N 35°27' E 139°39'0 0.0
2018-Apr-05 15:30N 35°27' E 139°39'0 0.0
2018-Apr-05 15:00N 35°27' E 139°39'0 0.0
2018-Apr-05 14:30N 35°27' E 139°39'0 0.0
2018-Apr-05 14:00N 35°27' E 139°39'0 0.0
2018-Apr-05 13:30N 35°27' E 139°39'0 0.0
2018-Apr-05 13:00N 35°27' E 139°39'0 0.0
2018-Apr-05 12:27N 35°27' E 139°39'0 0.0
2018-Apr-05 12:00N 35°27' E 139°39'0 0.0
2018-Apr-05 11:30N 35°27' E 139°39'0 0.0
2018-Apr-05 11:00N 35°27' E 139°39'0 0.0
2018-Apr-05 10:30N 35°27' E 139°39'0 0.0
2018-Apr-05 10:00N 35°27' E 139°39'0 0.0
2018-Apr-05 09:30N 35°27' E 139°39'0 0.0
2018-Apr-05 09:00N 35°27' E 139°39'0 0.0
2018-Apr-05 08:27N 35°27' E 139°39'0 0.0
2018-Apr-05 08:00N 35°27' E 139°39'0 0.0
2018-Apr-05 07:30N 35°27' E 139°39'0 0.0
2018-Apr-05 07:00N 35°27' E 139°39'0 0.1
2018-Apr-05 06:30N 35°27' E 139°39'0 0.1
2018-Apr-05 06:00N 35°27' E 139°39'0 0.0
2018-Apr-05 05:30N 35°27' E 139°39'0 0.0
2018-Apr-05 05:00N 35°27' E 139°39'0 0.0
2018-Apr-05 04:30N 35°27' E 139°39'0 0.0
2018-Apr-05 04:00N 35°27' E 139°39'0 0.0
2018-Apr-05 03:30N 35°27' E 139°39'0 0.0
2018-Apr-05 03:00N 35°27' E 139°39'0 0.0
2018-Apr-05 02:30N 35°27' E 139°39'0 0.0
2018-Apr-05 02:00N 35°27' E 139°39'0 0.0
2018-Apr-05 01:30N 35°27' E 139°39'0 0.0
2018-Apr-05 01:00N 35°27' E 139°39'0 0.0
2018-Apr-05 00:30N 35°27' E 139°39'0 0.0
2018-Apr-05 00:00N 35°27' E 139°39'0 0.0
2018-Apr-04 23:30N 35°27' E 139°39'0 0.0
2018-Apr-04 23:00N 35°27' E 139°39'0 0.0
2018-Apr-04 22:30N 35°27' E 139°39'0 0.1
2018-Apr-04 22:00N 35°27' E 139°39'0 0.1
2018-Apr-04 21:30N 35°27' E 139°39'0 0.0
2018-Apr-04 21:00N 35°27' E 139°39'0 0.0
2018-Apr-04 20:30N 35°27' E 139°39'0 0.0
2018-Apr-04 20:00N 35°27' E 139°39'0 0.0
2018-Apr-04 19:30N 35°27' E 139°39'0 0.0
2018-Apr-04 19:00N 35°27' E 139°39'0 0.1
2018-Apr-04 18:30N 35°27' E 139°39'0 0.0
2018-Apr-04 18:00N 35°27' E 139°39'0 0.0
2018-Apr-04 17:30N 35°27' E 139°39'0 0.1
2018-Apr-04 17:00N 35°27' E 139°39'0 0.1
2018-Apr-04 16:30N 35°27' E 139°39'0 0.0
2018-Apr-04 15:57N 35°27' E 139°39'0 0.0
2018-Apr-04 15:30N 35°27' E 139°39'0 0.0
2018-Apr-04 15:00N 35°27' E 139°39'0 0.0
2018-Apr-04 14:30N 35°27' E 139°39'0 0.0
2018-Apr-04 14:00N 35°27' E 139°39'0 0.0
2018-Apr-04 13:30N 35°27' E 139°39'0 0.0
2018-Apr-04 13:00N 35°27' E 139°39'0 0.0
2018-Apr-04 12:27N 35°27' E 139°39'0 0.0
2018-Apr-04 12:00N 35°27' E 139°39'0 0.0
2018-Apr-04 11:30N 35°27' E 139°39'0 0.0
2018-Apr-04 10:57N 35°27' E 139°39'0 0.0
2018-Apr-04 10:30N 35°27' E 139°39'0 0.0
2018-Apr-04 10:00N 35°27' E 139°39'0 0.0
2018-Apr-04 09:27N 35°27' E 139°39'0 0.0
2018-Apr-04 09:00N 35°27' E 139°39'0 0.0
2018-Apr-04 08:30N 35°27' E 139°39'0 0.0
2018-Apr-04 08:00N 35°27' E 139°39'0 0.0
2018-Apr-04 07:30N 35°27' E 139°39'0 0.0
2018-Apr-04 06:57N 35°27' E 139°39'0 0.0
2018-Apr-04 06:30N 35°27' E 139°39'0 0.0
2018-Apr-04 06:00N 35°27' E 139°39'0 0.0
2018-Apr-04 05:30N 35°27' E 139°39'0 0.0
2018-Apr-04 05:00N 35°27' E 139°39'0 0.0
2018-Apr-04 04:30N 35°27' E 139°39'0 0.0
2018-Apr-04 03:57N 35°27' E 139°39'0 0.0
2018-Apr-04 03:30N 35°27' E 139°39'0 0.0
2018-Apr-04 03:00N 35°27' E 139°39'0 0.0
2018-Apr-04 02:30N 35°27' E 139°39'0 0.0
2018-Apr-04 02:00N 35°27' E 139°39'0 0.0
2018-Apr-04 01:30N 35°27' E 139°39'0 0.0
2018-Apr-04 01:00N 35°27' E 139°39'0 0.0
2018-Apr-04 00:30N 35°27' E 139°39'0 0.0
2018-Apr-04 00:00N 35°27' E 139°39'0 0.0
2018-Apr-03 23:30N 35°27' E 139°39'0 0.0
2018-Apr-03 23:00N 35°27' E 139°39'0 0.1
2018-Apr-03 22:30N 35°27' E 139°39'0 0.1
2018-Apr-03 22:00N 35°27' E 139°39'0 0.0
2018-Apr-03 21:30N 35°27' E 139°39'0 0.0
2018-Apr-03 21:00N 35°27' E 139°39'0 0.0
2018-Apr-03 20:30N 35°27' E 139°39'0 0.0
2018-Apr-03 20:00N 35°27' E 139°39'0 0.0
2018-Apr-03 19:30N 35°27' E 139°39'0 0.0
2018-Apr-03 19:00N 35°27' E 139°39'0 0.1
2018-Apr-03 18:27N 35°27' E 139°39'0 0.1
2018-Apr-03 18:00N 35°27' E 139°39'0 0.1
2018-Apr-03 17:30N 35°27' E 139°39'0 0.1
2018-Apr-03 17:00N 35°27' E 139°39'0 0.0
2018-Apr-03 16:30N 35°27' E 139°39'0 0.0
2018-Apr-03 16:00N 35°27' E 139°39'0 0.0
2018-Apr-03 15:30N 35°27' E 139°39'0 0.0
2018-Apr-03 15:00N 35°27' E 139°39'0 0.0
2018-Apr-03 14:30N 35°27' E 139°39'0 0.0
2018-Apr-03 13:57N 35°27' E 139°39'0 0.0
2018-Apr-03 13:30N 35°27' E 139°39'0 0.0
2018-Apr-03 13:00N 35°27' E 139°39'0 0.0
2018-Apr-03 12:30N 35°27' E 139°39'0 0.0
2018-Apr-03 12:00N 35°27' E 139°39'0 0.0
2018-Apr-03 11:27N 35°27' E 139°39'0 0.0
2018-Apr-03 11:00N 35°27' E 139°39'0 0.0
2018-Apr-03 10:30N 35°27' E 139°39'0 0.0
2018-Apr-03 10:00N 35°27' E 139°39'0 0.1
2018-Apr-03 09:30N 35°27' E 139°39'0 0.1
2018-Apr-03 09:00N 35°27' E 139°39'0 0.0
2018-Apr-03 08:30N 35°27' E 139°39'0 0.0
2018-Apr-03 08:00N 35°27' E 139°39'0 0.0
2018-Apr-03 07:30N 35°27' E 139°39'0 0.1
2018-Apr-03 07:00N 35°27' E 139°39'0 0.1
2018-Apr-03 06:30N 35°27' E 139°39'0 0.0
2018-Apr-03 06:00N 35°27' E 139°39'0 0.0
2018-Apr-03 05:30N 35°27' E 139°39'0 0.0
2018-Apr-03 05:00N 35°27' E 139°39'0 0.0
2018-Apr-03 04:30N 35°27' E 139°39'0 0.0
2018-Apr-03 04:00N 35°27' E 139°39'0 0.0
2018-Apr-03 03:30N 35°27' E 139°39'0 0.0
2018-Apr-03 03:00N 35°27' E 139°39'0 0.0
2018-Apr-03 02:30N 35°27' E 139°39'0 0.0
2018-Apr-03 02:00N 35°27' E 139°39'0 0.0
2018-Apr-03 01:30N 35°27' E 139°39'0 0.0
2018-Apr-03 01:00N 35°27' E 139°39'0 0.0
2018-Apr-03 00:30N 35°27' E 139°39'0 0.0
2018-Apr-03 00:00N 35°27' E 139°39'0 0.0
2018-Apr-02 23:30N 35°27' E 139°39'0 0.0
2018-Apr-02 23:00N 35°27' E 139°39'0 0.1
2018-Apr-02 22:30N 35°27' E 139°39'0 0.1
2018-Apr-02 22:00N 35°27' E 139°39'0 0.0
2018-Apr-02 21:30N 35°27' E 139°39'0 0.0
2018-Apr-02 21:00N 35°27' E 139°39'0 0.0
2018-Apr-02 20:30N 35°27' E 139°39'0 0.0
2018-Apr-02 20:00N 35°27' E 139°39'0 0.0
2018-Apr-02 19:30N 35°27' E 139°39'0 0.0
2018-Apr-02 19:00N 35°27' E 139°39'0 0.1
2018-Apr-02 18:30N 35°27' E 139°39'0 0.1
2018-Apr-02 18:00N 35°27' E 139°39'0 0.1
2018-Apr-02 17:30N 35°27' E 139°39'0 0.1
2018-Apr-02 16:57N 35°27' E 139°39'0 0.0
2018-Apr-02 16:30N 35°27' E 139°39'0 0.0
2018-Apr-02 16:00N 35°27' E 139°39'0 0.0
2018-Apr-02 15:30N 35°27' E 139°39'0 0.1
2018-Apr-02 15:00N 35°27' E 139°39'0 0.0
2018-Apr-02 14:30N 35°27' E 139°39'0 0.1
2018-Apr-02 14:00N 35°27' E 139°39'0 0.0
2018-Apr-02 13:30N 35°27' E 139°39'0 0.0
2018-Apr-02 13:00N 35°27' E 139°39'0 0.0
2018-Apr-02 12:30N 35°27' E 139°39'0 0.0
2018-Apr-02 12:00N 35°27' E 139°39'0 0.0
2018-Apr-02 11:30N 35°27' E 139°39'  
Track history (hours):
 
Tides and Currents Weather Stations Pressure Air Temp Water Temp Dewpoint Dewpoint Depression Visibility Wind Speed Wind Dir Waves Ship Positions

Kaiwo Maru (Japan)

Built in 1989. Trains merchant marine cadets for Japan's National Institute for Sea Training.

Ship's website: http://www.kohkun.go.jp/en/ships/kaiwomaru.html

Last reported at 2018-Apr-12 11:22 UTC. Time now 2018-Apr-25 02:41 UTC.
Position N 34°54' E 140°13'.
Warning: this ship's position is 12 days out of date.

Length 110.1 m; beam 13.8 m; draft 6 m.

Type: Sailing vessel. MMSI: 431006000.

Date/timePositionNaut miles runAvg speedWind from/ knotsBaromVisibWave heightAir tempDewpointWater temp
2018-Apr-12 11:22N 34°54' E 140°13'1812.5
2018-Apr-12 09:55N 34°51' E 139°51'611.7
2018-Apr-12 09:25N 34°54' E 139°45'511.0
2018-Apr-12 09:00N 34°58' E 139°42'4 7.9
2018-Apr-12 08:31N 35°02' E 139°42'4 7.9
2018-Apr-12 08:00N 35°06' E 139°43'4 8.2
2018-Apr-12 07:31N 35°09' E 139°45'4 8.4
2018-Apr-12 07:00N 35°13' E 139°46'5 9.5
2018-Apr-12 06:31N 35°18' E 139°44'5 9.2
2018-Apr-12 06:01N 35°22' E 139°42'4 8.1
2018-Apr-12 05:30N 35°26' E 139°42'3 5.2
2018-Apr-12 05:00N 35°27' E 139°39'0 0.2
2018-Apr-12 04:28N 35°27' E 139°39'0 0.0
2018-Apr-12 03:58N 35°27' E 139°39'0 0.0
2018-Apr-12 03:28N 35°27' E 139°39'0 0.0
2018-Apr-12 02:58N 35°27' E 139°39'0 0.0
2018-Apr-12 02:28N 35°27' E 139°39'0 0.0
2018-Apr-12 01:58N 35°27' E 139°39'0 0.0
2018-Apr-12 01:28N 35°27' E 139°39'0 0.0
2018-Apr-12 00:55N 35°27' E 139°39'0 0.0
2018-Apr-12 00:28N 35°27' E 139°39'0 0.0
2018-Apr-11 23:58N 35°27' E 139°39'0 0.0
2018-Apr-11 23:28N 35°27' E 139°39'0 0.0
2018-Apr-11 22:58N 35°27' E 139°39'0 0.0
2018-Apr-11 22:28N 35°27' E 139°39'0 0.0
2018-Apr-11 21:58N 35°27' E 139°39'0 0.0
2018-Apr-11 21:28N 35°27' E 139°39'0 0.0
2018-Apr-11 20:58N 35°27' E 139°39'0 0.0
2018-Apr-11 20:28N 35°27' E 139°39'0 0.0
2018-Apr-11 19:58N 35°27' E 139°39'0 0.0
2018-Apr-11 19:28N 35°27' E 139°39'0 0.0
2018-Apr-11 18:58N 35°27' E 139°39'0 0.0
2018-Apr-11 18:28N 35°27' E 139°39'0 0.0
2018-Apr-11 17:58N 35°27' E 139°39'0 0.0
2018-Apr-11 17:25N 35°27' E 139°39'0 0.0
2018-Apr-11 16:55N 35°27' E 139°39'0 0.0
2018-Apr-11 16:28N 35°27' E 139°39'0 0.0
2018-Apr-11 15:58N 35°27' E 139°39'0 0.0
2018-Apr-11 15:28N 35°27' E 139°39'0 0.0
2018-Apr-11 14:58N 35°27' E 139°39'0 0.0
2018-Apr-11 14:28N 35°27' E 139°39'0 0.0
2018-Apr-11 13:55N 35°27' E 139°39'0 0.0
2018-Apr-11 13:28N 35°27' E 139°39'0 0.0
2018-Apr-11 12:58N 35°27' E 139°39'0 0.0
2018-Apr-11 12:28N 35°27' E 139°39'0 0.0
2018-Apr-11 11:58N 35°27' E 139°39'0 0.0
2018-Apr-11 11:28N 35°27' E 139°39'0 0.0
2018-Apr-11 10:58N 35°27' E 139°39'0 0.0
2018-Apr-11 10:28N 35°27' E 139°39'0 0.0
2018-Apr-11 09:58N 35°27' E 139°39'0 0.0
2018-Apr-11 09:28N 35°27' E 139°39'0 0.0
2018-Apr-11 08:58N 35°27' E 139°39'0 0.0
2018-Apr-11 08:28N 35°27' E 139°39'0 0.0
2018-Apr-11 07:58N 35°27' E 139°39'0 0.0
2018-Apr-11 07:28N 35°27' E 139°39'0 0.0
2018-Apr-11 06:58N 35°27' E 139°39'0 0.0
2018-Apr-11 06:28N 35°27' E 139°39'0 0.0
2018-Apr-11 05:58N 35°27' E 139°39'0 0.0
2018-Apr-11 05:28N 35°27' E 139°39'0 0.0
2018-Apr-11 04:55N 35°27' E 139°39'0 0.0
2018-Apr-11 04:28N 35°27' E 139°39'0 0.0
2018-Apr-11 03:58N 35°27' E 139°39'0 0.0
2018-Apr-11 03:28N 35°27' E 139°39'0 0.0
2018-Apr-11 02:58N 35°27' E 139°39'0 0.0
2018-Apr-11 02:25N 35°27' E 139°39'0 0.0
2018-Apr-11 01:58N 35°27' E 139°39'0 0.0
2018-Apr-11 01:25N 35°27' E 139°39'0 0.0
2018-Apr-11 00:58N 35°27' E 139°39'0 0.0
2018-Apr-11 00:28N 35°27' E 139°39'0 0.0
2018-Apr-10 23:58N 35°27' E 139°39'0 0.0
2018-Apr-10 23:28N 35°27' E 139°39'0 0.0
2018-Apr-10 22:58N 35°27' E 139°39'0 0.0
2018-Apr-10 22:25N 35°27' E 139°39'0 0.0
2018-Apr-10 21:58N 35°27' E 139°39'0 0.0
2018-Apr-10 21:28N 35°27' E 139°39'0 0.0
2018-Apr-10 20:58N 35°27' E 139°39'0 0.0
2018-Apr-10 20:28N 35°27' E 139°39'0 0.0
2018-Apr-10 19:58N 35°27' E 139°39'0 0.0
2018-Apr-10 19:28N 35°27' E 139°39'0 0.0
2018-Apr-10 18:59N 35°27' E 139°39'0 0.0
2018-Apr-10 18:28N 35°27' E 139°39'0 0.0
2018-Apr-10 17:58N 35°27' E 139°39'0 0.0
2018-Apr-10 17:28N 35°27' E 139°39'0 0.0
2018-Apr-10 16:58N 35°27' E 139°39'0 0.0
2018-Apr-10 16:28N 35°27' E 139°39'0 0.0
2018-Apr-10 15:52N 35°27' E 139°39'0 0.0
2018-Apr-10 15:25N 35°27' E 139°39'0 0.0
2018-Apr-10 14:55N 35°27' E 139°39'0 0.0
2018-Apr-10 14:28N 35°27' E 139°39'0 0.0
2018-Apr-10 13:58N 35°27' E 139°39'0 0.0
2018-Apr-10 13:28N 35°27' E 139°39'0 0.0
2018-Apr-10 12:58N 35°27' E 139°39'0 0.0
2018-Apr-10 12:28N 35°27' E 139°39'0 0.0
2018-Apr-10 11:58N 35°27' E 139°39'0 0.0
2018-Apr-10 11:28N 35°27' E 139°39'0 0.0
2018-Apr-10 10:58N 35°27' E 139°39'0 0.0
2018-Apr-10 10:25N 35°27' E 139°39'0 0.0
2018-Apr-10 09:58N 35°27' E 139°39'0 0.0
2018-Apr-10 09:28N 35°27' E 139°39'0 0.0
2018-Apr-10 08:52N 35°27' E 139°39'0 0.0
2018-Apr-10 08:28N 35°27' E 139°39'0 0.0
2018-Apr-10 07:58N 35°27' E 139°39'0 0.0
2018-Apr-10 07:28N 35°27' E 139°39'0 0.0
2018-Apr-10 06:52N 35°27' E 139°39'0 0.0
2018-Apr-10 06:28N 35°27' E 139°39'0 0.0
2018-Apr-10 05:58N 35°27' E 139°39'0 0.0
2018-Apr-10 05:28N 35°27' E 139°39'0 0.0
2018-Apr-10 04:58N 35°27' E 139°39'0 0.0
2018-Apr-10 04:28N 35°27' E 139°39'0 0.0
2018-Apr-10 03:58N 35°27' E 139°39'0 0.0
2018-Apr-10 03:28N 35°27' E 139°39'0 0.0
2018-Apr-10 02:58N 35°27' E 139°39'0 0.0
2018-Apr-10 02:28N 35°27' E 139°39'0 0.0
2018-Apr-10 01:58N 35°27' E 139°39'0 0.0
2018-Apr-10 01:28N 35°27' E 139°39'0 0.0
2018-Apr-10 00:58N 35°27' E 139°39'0 0.0
2018-Apr-10 00:28N 35°27' E 139°39'0 0.0
2018-Apr-09 23:58N 35°27' E 139°39'0 0.0
2018-Apr-09 23:28N 35°27' E 139°39'0 0.0
2018-Apr-09 22:58N 35°27' E 139°39'0 0.0
2018-Apr-09 22:28N 35°27' E 139°39'0 0.0
2018-Apr-09 21:58N 35°27' E 139°39'0 0.0
2018-Apr-09 21:28N 35°27' E 139°39'0 0.0
2018-Apr-09 20:58N 35°27' E 139°39'0 0.0
2018-Apr-09 20:28N 35°27' E 139°39'0 0.0
2018-Apr-09 19:58N 35°27' E 139°39'0 0.0
2018-Apr-09 19:28N 35°27' E 139°39'0 0.0
2018-Apr-09 18:58N 35°27' E 139°39'0 0.0
2018-Apr-09 18:25N 35°27' E 139°39'0 0.0
2018-Apr-09 17:55N 35°27' E 139°39'0 0.0
2018-Apr-09 17:28N 35°27' E 139°39'0 0.0
2018-Apr-09 16:58N 35°27' E 139°39'0 0.0
2018-Apr-09 16:28N 35°27' E 139°39'0 0.0
2018-Apr-09 15:55N 35°27' E 139°39'0 0.0
2018-Apr-09 15:28N 35°27' E 139°39'0 0.0
2018-Apr-09 14:58N 35°27' E 139°39'0 0.0
2018-Apr-09 14:28N 35°27' E 139°39'0 0.0
2018-Apr-09 13:58N 35°27' E 139°39'0 0.0
2018-Apr-09 13:28N 35°27' E 139°39'0 0.0
2018-Apr-09 12:58N 35°27' E 139°39'0 0.0
2018-Apr-09 12:28N 35°27' E 139°39'0 0.0
2018-Apr-09 11:58N 35°27' E 139°39'0 0.0
2018-Apr-09 11:28N 35°27' E 139°39'0 0.0
2018-Apr-09 10:58N 35°27' E 139°39'0 0.0
2018-Apr-09 10:28N 35°27' E 139°39'0 0.0
2018-Apr-09 09:58N 35°27' E 139°39'0 0.0
2018-Apr-09 09:28N 35°27' E 139°39'0 0.0
2018-Apr-09 08:58N 35°27' E 139°39'0 0.0
2018-Apr-09 08:29N 35°27' E 139°39'0 0.0
2018-Apr-09 07:58N 35°27' E 139°39'0 0.0
2018-Apr-09 07:28N 35°27' E 139°39'0 0.1
2018-Apr-09 06:58N 35°27' E 139°39'0 0.1
2018-Apr-09 06:28N 35°27' E 139°39'0 0.0
2018-Apr-09 05:58N 35°27' E 139°39'0 0.0
2018-Apr-09 05:28N 35°27' E 139°39'0 0.0
2018-Apr-09 04:58N 35°27' E 139°39'0 0.7
2018-Apr-09 04:30N 35°27' E 139°39'4 7.2
2018-Apr-09 04:00N 35°26' E 139°43'4 7.9
2018-Apr-09 03:30N 35°22' E 139°44'0 0.1
2018-Apr-09 03:00N 35°22' E 139°44'0 0.1
2018-Apr-09 02:30N 35°22' E 139°44'0 0.0
2018-Apr-09 02:00N 35°22' E 139°44'0 0.1
2018-Apr-09 01:30N 35°22' E 139°44'0 0.0
2018-Apr-09 00:54N 35°22' E 139°44'0 0.0
2018-Apr-09 00:27N 35°22' E 139°44'0 0.0
2018-Apr-09 00:00N 35°22' E 139°44'0 0.0
2018-Apr-08 23:30N 35°22' E 139°44'0 0.0
2018-Apr-08 22:57N 35°22' E 139°44'0 0.0
2018-Apr-08 22:30N 35°22' E 139°44'0 0.1
2018-Apr-08 21:57N 35°22' E 139°44'0 0.0
2018-Apr-08 21:30N 35°22' E 139°44'0 0.0
2018-Apr-08 21:00N 35°22' E 139°44'0 0.1
2018-Apr-08 20:30N 35°22' E 139°44'0 0.1
2018-Apr-08 20:00N 35°22' E 139°44'0 0.0
2018-Apr-08 19:30N 35°22' E 139°44'0 0.0
2018-Apr-08 19:00N 35°22' E 139°44'0 0.0
2018-Apr-08 18:30N 35°22' E 139°44'0 0.0
2018-Apr-08 18:00N 35°22' E 139°44'0 0.0
2018-Apr-08 17:30N 35°22' E 139°44'0 0.0
2018-Apr-08 17:00N 35°22' E 139°44'0 0.0
2018-Apr-08 16:30N 35°22' E 139°44'0 0.0
2018-Apr-08 16:00N 35°22' E 139°44'0 0.0
2018-Apr-08 15:24N 35°22' E 139°44'0 0.0
2018-Apr-08 15:00N 35°22' E 139°44'0 0.0
2018-Apr-08 14:30N 35°22' E 139°44'0 0.0
2018-Apr-08 14:00N 35°22' E 139°44'0 0.0
2018-Apr-08 13:30N 35°22' E 139°44'0 0.0
2018-Apr-08 13:00N 35°22' E 139°44'0 0.1
2018-Apr-08 12:30N 35°22' E 139°44'0 0.1
2018-Apr-08 12:00N 35°22' E 139°44'0 0.0
2018-Apr-08 11:30N 35°22' E 139°44'0 0.0
2018-Apr-08 11:00N 35°22' E 139°44'0 0.0
2018-Apr-08 10:30N 35°22' E 139°44'0 0.0
2018-Apr-08 10:00N 35°22' E 139°44'0 0.0
2018-Apr-08 09:30N 35°22' E 139°44'0 0.0
2018-Apr-08 09:00N 35°22' E 139°44'0 0.0
2018-Apr-08 08:30N 35°22' E 139°44'0 0.0
2018-Apr-08 08:00N 35°22' E 139°44'0 0.0
2018-Apr-08 07:30N 35°22' E 139°44'0 0.0
2018-Apr-08 07:00N 35°22' E 139°44'0 0.0
2018-Apr-08 06:30N 35°22' E 139°44'0 0.0
2018-Apr-08 06:00N 35°22' E 139°44'0 0.0
2018-Apr-08 05:24N 35°22' E 139°44'0 0.0
2018-Apr-08 05:00N 35°22' E 139°44'0 0.0
2018-Apr-08 04:30N 35°22' E 139°44'0 0.0
2018-Apr-08 04:00N 35°22' E 139°44'0 0.0
2018-Apr-08 03:30N 35°22' E 139°44'0 0.0
2018-Apr-08 02:57N 35°22' E 139°44'0 0.0
2018-Apr-08 02:30N 35°22' E 139°44'0 0.0
2018-Apr-08 02:00N 35°22' E 139°44'0 0.0
2018-Apr-08 01:30N 35°22' E 139°44'0 0.0
2018-Apr-08 01:00N 35°22' E 139°44'0 0.0
2018-Apr-08 00:30N 35°22' E 139°44'0 0.0
2018-Apr-07 23:57N 35°22' E 139°44'0 0.1
2018-Apr-07 23:30N 35°22' E 139°44'0 0.0
2018-Apr-07 23:00N 35°22' E 139°44'0 0.0
2018-Apr-07 22:30N 35°22' E 139°44'0 0.0
2018-Apr-07 22:00N 35°22' E 139°44'0 0.0
2018-Apr-07 21:30N 35°22' E 139°44'0 0.0
2018-Apr-07 21:00N 35°22' E 139°44'0 0.0
2018-Apr-07 20:27N 35°22' E 139°44'0 0.0
2018-Apr-07 20:00N 35°22' E 139°44'0 0.0
2018-Apr-07 19:30N 35°22' E 139°44'0 0.1
2018-Apr-07 19:00N 35°22' E 139°44'0 0.1
2018-Apr-07 18:30N 35°22' E 139°44'0 0.1
2018-Apr-07 18:00N 35°22' E 139°44'0 0.0
2018-Apr-07 17:30N 35°22' E 139°44'0 0.0
2018-Apr-07 17:00N 35°22' E 139°44'0 0.1
2018-Apr-07 16:30N 35°22' E 139°44'0 0.0
2018-Apr-07 16:00N 35°22' E 139°44'0 0.0
2018-Apr-07 15:30N 35°22' E 139°44'0 0.0
2018-Apr-07 15:00N 35°22' E 139°44'0 0.0
2018-Apr-07 14:27N 35°22' E 139°44'0 0.1
2018-Apr-07 14:00N 35°22' E 139°44'0 0.1
2018-Apr-07 13:30N 35°22' E 139°44'0 0.0
2018-Apr-07 13:00N 35°22' E 139°44'0 0.0
2018-Apr-07 12:30N 35°22' E 139°44'0 0.0
2018-Apr-07 12:00N 35°22' E 139°44'0 0.0
2018-Apr-07 11:30N 35°22' E 139°44'0 0.0
2018-Apr-07 11:00N 35°22' E 139°44'0 0.7
2018-Apr-07 10:30N 35°22' E 139°44'1 1.3
2018-Apr-07 10:00N 35°23' E 139°44'4 7.5
2018-Apr-07 09:30N 35°26' E 139°42'3 6.1
2018-Apr-07 09:00N 35°27' E 139°39'0 0.1
2018-Apr-07 08:30N 35°27' E 139°39'0 0.0
2018-Apr-07 08:00N 35°27' E 139°39'0 0.0
2018-Apr-07 07:27N 35°27' E 139°39'0 0.0
2018-Apr-07 07:00N 35°27' E 139°39'0 0.1
2018-Apr-07 06:30N 35°27' E 139°39'0 0.1
2018-Apr-07 06:00N 35°27' E 139°39'0 0.0
2018-Apr-07 05:30N 35°27' E 139°39'0 0.1
2018-Apr-07 05:00N 35°27' E 139°39'0 0.1
2018-Apr-07 04:30N 35°27' E 139°39'0 0.0
2018-Apr-07 04:00N 35°27' E 139°39'0 0.0
2018-Apr-07 03:27N 35°27' E 139°39'0 0.0
2018-Apr-07 03:00N 35°27' E 139°39'0 0.0
2018-Apr-07 02:30N 35°27' E 139°39'0 0.0
2018-Apr-07 02:00N 35°27' E 139°39'0 0.0
2018-Apr-07 01:30N 35°27' E 139°39'0 0.0
2018-Apr-07 01:00N 35°27' E 139°39'0 0.0
2018-Apr-07 00:30N 35°27' E 139°39'0 0.0
2018-Apr-07 00:00N 35°27' E 139°39'0 0.0
2018-Apr-06 23:30N 35°27' E 139°39'0 0.0
2018-Apr-06 23:00N 35°27' E 139°39'0 0.0
2018-Apr-06 22:31N 35°27' E 139°39'0 0.1
2018-Apr-06 22:00N 35°27' E 139°39'0 0.1
2018-Apr-06 21:30N 35°27' E 139°39'0 0.0
2018-Apr-06 21:00N 35°27' E 139°39'0 0.0
2018-Apr-06 20:30N 35°27' E 139°39'0 0.0
2018-Apr-06 20:00N 35°27' E 139°39'0 0.0
2018-Apr-06 19:30N 35°27' E 139°39'0 0.0
2018-Apr-06 19:00N 35°27' E 139°39'0 0.0
2018-Apr-06 18:30N 35°27' E 139°39'0 0.0
2018-Apr-06 18:00N 35°27' E 139°39'0 0.1
2018-Apr-06 17:30N 35°27' E 139°39'0 0.1
2018-Apr-06 17:00N 35°27' E 139°39'0 0.0
2018-Apr-06 16:30N 35°27' E 139°39'0 0.0
2018-Apr-06 16:00N 35°27' E 139°39'0 0.0
2018-Apr-06 15:30N 35°27' E 139°39'0 0.0
2018-Apr-06 15:00N 35°27' E 139°39'0 0.0
2018-Apr-06 14:30N 35°27' E 139°39'0 0.1
2018-Apr-06 14:00N 35°27' E 139°39'0 0.1
2018-Apr-06 13:30N 35°27' E 139°39'0 0.0
2018-Apr-06 13:00N 35°27' E 139°39'0 0.0
2018-Apr-06 12:30N 35°27' E 139°39'0 0.0
2018-Apr-06 12:00N 35°27' E 139°39'0 0.0
2018-Apr-06 11:30N 35°27' E 139°39'0 0.0
2018-Apr-06 11:00N 35°27' E 139°39'0 0.0
2018-Apr-06 10:30N 35°27' E 139°39'0 0.0
2018-Apr-06 10:00N 35°27' E 139°39'0 0.0
2018-Apr-06 09:30N 35°27' E 139°39'0 0.0
2018-Apr-06 09:00N 35°27' E 139°39'0 0.0
2018-Apr-06 08:30N 35°27' E 139°39'0 0.0
2018-Apr-06 08:00N 35°27' E 139°39'0 0.0
2018-Apr-06 07:30N 35°27' E 139°39'0 0.1
2018-Apr-06 07:00N 35°27' E 139°39'0 0.1
2018-Apr-06 06:30N 35°27' E 139°39'0 0.0
2018-Apr-06 06:00N 35°27' E 139°39'0 0.0
2018-Apr-06 05:30N 35°27' E 139°39'0 0.0
2018-Apr-06 05:00N 35°27' E 139°39'0 0.0
2018-Apr-06 04:30N 35°27' E 139°39'0 0.0
2018-Apr-06 04:00N 35°27' E 139°39'0 0.0
2018-Apr-06 03:30N 35°27' E 139°39'0 0.0
2018-Apr-06 03:00N 35°27' E 139°39'0 0.0
2018-Apr-06 02:30N 35°27' E 139°39'0 0.0
2018-Apr-06 02:00N 35°27' E 139°39'0 0.0
2018-Apr-06 01:30N 35°27' E 139°39'0 0.0
2018-Apr-06 01:00N 35°27' E 139°39'0 0.0
2018-Apr-06 00:30N 35°27' E 139°39'0 0.0
2018-Apr-06 00:00N 35°27' E 139°39'0 0.0
2018-Apr-05 23:30N 35°27' E 139°39'0 0.0
2018-Apr-05 23:00N 35°27' E 139°39'0 0.0
2018-Apr-05 22:30N 35°27' E 139°39'0 0.1
2018-Apr-05 22:00N 35°27' E 139°39'0 0.1
2018-Apr-05 21:30N 35°27' E 139°39'0 0.0
2018-Apr-05 21:00N 35°27' E 139°39'0 0.0
2018-Apr-05 20:30N 35°27' E 139°39'0 0.0
2018-Apr-05 19:57N 35°27' E 139°39'0 0.0
2018-Apr-05 19:27N 35°27' E 139°39'0 0.1
2018-Apr-05 19:00N 35°27' E 139°39'0 0.0
2018-Apr-05 18:30N 35°27' E 139°39'0 0.0
2018-Apr-05 18:00N 35°27' E 139°39'0 0.1
2018-Apr-05 17:30N 35°27' E 139°39'0 0.1
2018-Apr-05 17:00N 35°27' E 139°39'0 0.0
2018-Apr-05 16:30N 35°27' E 139°39'0 0.0
2018-Apr-05 16:00N 35°27' E 139°39'0 0.0
2018-Apr-05 15:30N 35°27' E 139°39'0 0.0
2018-Apr-05 15:00N 35°27' E 139°39'0 0.0
2018-Apr-05 14:30N 35°27' E 139°39'0 0.0
2018-Apr-05 14:00N 35°27' E 139°39'0 0.0
2018-Apr-05 13:30N 35°27' E 139°39'0 0.0
2018-Apr-05 13:00N 35°27' E 139°39'0 0.0
2018-Apr-05 12:27N 35°27' E 139°39'0 0.0
2018-Apr-05 12:00N 35°27' E 139°39'0 0.0
2018-Apr-05 11:30N 35°27' E 139°39'0 0.0
2018-Apr-05 11:00N 35°27' E 139°39'0 0.0
2018-Apr-05 10:30N 35°27' E 139°39'0 0.0
2018-Apr-05 10:00N 35°27' E 139°39'0 0.0
2018-Apr-05 09:30N 35°27' E 139°39'0 0.0
2018-Apr-05 09:00N 35°27' E 139°39'0 0.0
2018-Apr-05 08:27N 35°27' E 139°39'0 0.0
2018-Apr-05 08:00N 35°27' E 139°39'0 0.0
2018-Apr-05 07:30N 35°27' E 139°39'0 0.0
2018-Apr-05 07:00N 35°27' E 139°39'0 0.1
2018-Apr-05 06:30N 35°27' E 139°39'0 0.1
2018-Apr-05 06:00N 35°27' E 139°39'0 0.0
2018-Apr-05 05:30N 35°27' E 139°39'0 0.0
2018-Apr-05 05:00N 35°27' E 139°39'0 0.0
2018-Apr-05 04:30N 35°27' E 139°39'0 0.0
2018-Apr-05 04:00N 35°27' E 139°39'0 0.0
2018-Apr-05 03:30N 35°27' E 139°39'0 0.0
2018-Apr-05 03:00N 35°27' E 139°39'0 0.0
2018-Apr-05 02:30N 35°27' E 139°39'0 0.0
2018-Apr-05 02:00N 35°27' E 139°39'0 0.0
2018-Apr-05 01:30N 35°27' E 139°39'0 0.0
2018-Apr-05 01:00N 35°27' E 139°39'0 0.0
2018-Apr-05 00:30N 35°27' E 139°39'0 0.0
2018-Apr-05 00:00N 35°27' E 139°39'0 0.0
2018-Apr-04 23:30N 35°27' E 139°39'0 0.0
2018-Apr-04 23:00N 35°27' E 139°39'0 0.0
2018-Apr-04 22:30N 35°27' E 139°39'0 0.1
2018-Apr-04 22:00N 35°27' E 139°39'0 0.1
2018-Apr-04 21:30N 35°27' E 139°39'0 0.0
2018-Apr-04 21:00N 35°27' E 139°39'0 0.0
2018-Apr-04 20:30N 35°27' E 139°39'0 0.0
2018-Apr-04 20:00N 35°27' E 139°39'0 0.0
2018-Apr-04 19:30N 35°27' E 139°39'0 0.0
2018-Apr-04 19:00N 35°27' E 139°39'0 0.1
2018-Apr-04 18:30N 35°27' E 139°39'0 0.0
2018-Apr-04 18:00N 35°27' E 139°39'0 0.0
2018-Apr-04 17:30N 35°27' E 139°39'0 0.1
2018-Apr-04 17:00N 35°27' E 139°39'0 0.1
2018-Apr-04 16:30N 35°27' E 139°39'0 0.0
2018-Apr-04 15:57N 35°27' E 139°39'0 0.0
2018-Apr-04 15:30N 35°27' E 139°39'0 0.0
2018-Apr-04 15:00N 35°27' E 139°39'0 0.0
2018-Apr-04 14:30N 35°27' E 139°39'0 0.0
2018-Apr-04 14:00N 35°27' E 139°39'0 0.0
2018-Apr-04 13:30N 35°27' E 139°39'0 0.0
2018-Apr-04 13:00N 35°27' E 139°39'0 0.0
2018-Apr-04 12:27N 35°27' E 139°39'0 0.0
2018-Apr-04 12:00N 35°27' E 139°39'0 0.0
2018-Apr-04 11:30N 35°27' E 139°39'0 0.0
2018-Apr-04 10:57N 35°27' E 139°39'0 0.0
2018-Apr-04 10:30N 35°27' E 139°39'0 0.0
2018-Apr-04 10:00N 35°27' E 139°39'0 0.0
2018-Apr-04 09:27N 35°27' E 139°39'0 0.0
2018-Apr-04 09:00N 35°27' E 139°39'0 0.0
2018-Apr-04 08:30N 35°27' E 139°39'0 0.0
2018-Apr-04 08:00N 35°27' E 139°39'0 0.0
2018-Apr-04 07:30N 35°27' E 139°39'0 0.0
2018-Apr-04 06:57N 35°27' E 139°39'0 0.0
2018-Apr-04 06:30N 35°27' E 139°39'0 0.0
2018-Apr-04 06:00N 35°27' E 139°39'0 0.0
2018-Apr-04 05:30N 35°27' E 139°39'0 0.0
2018-Apr-04 05:00N 35°27' E 139°39'0 0.0
2018-Apr-04 04:30N 35°27' E 139°39'0 0.0
2018-Apr-04 03:57N 35°27' E 139°39'0 0.0
2018-Apr-04 03:30N 35°27' E 139°39'0 0.0
2018-Apr-04 03:00N 35°27' E 139°39'0 0.0
2018-Apr-04 02:30N 35°27' E 139°39'0 0.0
2018-Apr-04 02:00N 35°27' E 139°39'0 0.0
2018-Apr-04 01:30N 35°27' E 139°39'0 0.0
2018-Apr-04 01:00N 35°27' E 139°39'0 0.0
2018-Apr-04 00:30N 35°27' E 139°39'0 0.0
2018-Apr-04 00:00N 35°27' E 139°39'0 0.0
2018-Apr-03 23:30N 35°27' E 139°39'0 0.0
2018-Apr-03 23:00N 35°27' E 139°39'0 0.1
2018-Apr-03 22:30N 35°27' E 139°39'0 0.1
2018-Apr-03 22:00N 35°27' E 139°39'0 0.0
2018-Apr-03 21:30N 35°27' E 139°39'0 0.0
2018-Apr-03 21:00N 35°27' E 139°39'0 0.0
2018-Apr-03 20:30N 35°27' E 139°39'0 0.0
2018-Apr-03 20:00N 35°27' E 139°39'0 0.0
2018-Apr-03 19:30N 35°27' E 139°39'0 0.0
2018-Apr-03 19:00N 35°27' E 139°39'0 0.1
2018-Apr-03 18:27N 35°27' E 139°39'0 0.1
2018-Apr-03 18:00N 35°27' E 139°39'0 0.1
2018-Apr-03 17:30N 35°27' E 139°39'0 0.1
2018-Apr-03 17:00N 35°27' E 139°39'0 0.0
2018-Apr-03 16:30N 35°27' E 139°39'0 0.0
2018-Apr-03 16:00N 35°27' E 139°39'0 0.0
2018-Apr-03 15:30N 35°27' E 139°39'0 0.0
2018-Apr-03 15:00N 35°27' E 139°39'0 0.0
2018-Apr-03 14:30N 35°27' E 139°39'0 0.0
2018-Apr-03 13:57N 35°27' E 139°39'0 0.0
2018-Apr-03 13:30N 35°27' E 139°39'0 0.0
2018-Apr-03 13:00N 35°27' E 139°39'0 0.0
2018-Apr-03 12:30N 35°27' E 139°39'0 0.0
2018-Apr-03 12:00N 35°27' E 139°39'0 0.0
2018-Apr-03 11:27N 35°27' E 139°39'0 0.0
2018-Apr-03 11:00N 35°27' E 139°39'0 0.0
2018-Apr-03 10:30N 35°27' E 139°39'0 0.0
2018-Apr-03 10:00N 35°27' E 139°39'0 0.1
2018-Apr-03 09:30N 35°27' E 139°39'0 0.1
2018-Apr-03 09:00N 35°27' E 139°39'0 0.0
2018-Apr-03 08:30N 35°27' E 139°39'0 0.0
2018-Apr-03 08:00N 35°27' E 139°39'0 0.0
2018-Apr-03 07:30N 35°27' E 139°39'0 0.1
2018-Apr-03 07:00N 35°27' E 139°39'0 0.1
2018-Apr-03 06:30N 35°27' E 139°39'0 0.0
2018-Apr-03 06:00N 35°27' E 139°39'0 0.0
2018-Apr-03 05:30N 35°27' E 139°39'0 0.0
2018-Apr-03 05:00N 35°27' E 139°39'0 0.0
2018-Apr-03 04:30N 35°27' E 139°39'0 0.0
2018-Apr-03 04:00N 35°27' E 139°39'0 0.0
2018-Apr-03 03:30N 35°27' E 139°39'0 0.0
2018-Apr-03 03:00N 35°27' E 139°39'0 0.0
2018-Apr-03 02:30N 35°27' E 139°39'0 0.0
2018-Apr-03 02:00N 35°27' E 139°39'0 0.0
2018-Apr-03 01:30N 35°27' E 139°39'0 0.0
2018-Apr-03 01:00N 35°27' E 139°39'0 0.0
2018-Apr-03 00:30N 35°27' E 139°39'0 0.0
2018-Apr-03 00:00N 35°27' E 139°39'0 0.0
2018-Apr-02 23:30N 35°27' E 139°39'0 0.0
2018-Apr-02 23:00N 35°27' E 139°39'0 0.1
2018-Apr-02 22:30N 35°27' E 139°39'0 0.1
2018-Apr-02 22:00N 35°27' E 139°39'0 0.0
2018-Apr-02 21:30N 35°27' E 139°39'0 0.0
2018-Apr-02 21:00N 35°27' E 139°39'0 0.0
2018-Apr-02 20:30N 35°27' E 139°39'0 0.0
2018-Apr-02 20:00N 35°27' E 139°39'0 0.0
2018-Apr-02 19:30N 35°27' E 139°39'0 0.0
2018-Apr-02 19:00N 35°27' E 139°39'0 0.1
2018-Apr-02 18:30N 35°27' E 139°39'0 0.1
2018-Apr-02 18:00N 35°27' E 139°39'0 0.1
2018-Apr-02 17:30N 35°27' E 139°39'0 0.1
2018-Apr-02 16:57N 35°27' E 139°39'0 0.0
2018-Apr-02 16:30N 35°27' E 139°39'0 0.0
2018-Apr-02 16:00N 35°27' E 139°39'0 0.0
2018-Apr-02 15:30N 35°27' E 139°39'0 0.1
2018-Apr-02 15:00N 35°27' E 139°39'0 0.0
2018-Apr-02 14:30N 35°27' E 139°39'0 0.1
2018-Apr-02 14:00N 35°27' E 139°39'0 0.0
2018-Apr-02 13:30N 35°27' E 139°39'0 0.0
2018-Apr-02 13:00N 35°27' E 139°39'0 0.0
2018-Apr-02 12:30N 35°27' E 139°39'0 0.0
2018-Apr-02 12:00N 35°27' E 139°39'0 0.0
2018-Apr-02 11:30N 35°27' E 139°39'  

Dump ship's entire track history